sensor_id;sensor_type;location;lat;lon;timestamp;P1;durP1;ratioP1;P2;durP2;ratioP2
40601;SDS011;26310;50.278;19.032;2023-07-20T00:00:40;7.32;;;3.85;;
40601;SDS011;26310;50.278;19.032;2023-07-20T00:06:03;7.43;;;4.03;;
40601;SDS011;26310;50.278;19.032;2023-07-20T00:11:06;8.40;;;3.63;;
40601;SDS011;26310;50.278;19.032;2023-07-20T00:16:09;4.80;;;3.08;;
40601;SDS011;26310;50.278;19.032;2023-07-20T00:21:12;6.32;;;3.47;;
40601;SDS011;26310;50.278;19.032;2023-07-20T00:26:16;7.63;;;3.80;;
40601;SDS011;26310;50.278;19.032;2023-07-20T00:31:19;8.15;;;3.55;;
40601;SDS011;26310;50.278;19.032;2023-07-20T00:36:22;8.55;;;3.70;;
40601;SDS011;26310;50.278;19.032;2023-07-20T00:41:25;6.85;;;3.75;;
40601;SDS011;26310;50.278;19.032;2023-07-20T00:46:31;8.18;;;3.90;;
40601;SDS011;26310;50.278;19.032;2023-07-20T00:51:35;6.38;;;3.80;;
40601;SDS011;26310;50.278;19.032;2023-07-20T00:56:38;10.50;;;4.40;;
40601;SDS011;26310;50.278;19.032;2023-07-20T01:01:41;9.25;;;4.22;;
40601;SDS011;26310;50.278;19.032;2023-07-20T01:12:12;8.93;;;4.10;;
40601;SDS011;26310;50.278;19.032;2023-07-20T01:17:20;8.90;;;4.20;;
40601;SDS011;26310;50.278;19.032;2023-07-20T01:32:47;6.43;;;4.20;;
40601;SDS011;26310;50.278;19.032;2023-07-20T01:37:50;6.73;;;3.90;;
40601;SDS011;26310;50.278;19.032;2023-07-20T01:42:54;7.17;;;3.90;;
40601;SDS011;26310;50.278;19.032;2023-07-20T01:47:57;7.03;;;4.43;;
40601;SDS011;26310;50.278;19.032;2023-07-20T01:53:00;6.60;;;3.73;;
40601;SDS011;26310;50.278;19.032;2023-07-20T01:58:04;5.40;;;3.73;;
40601;SDS011;26310;50.278;19.032;2023-07-20T02:03:07;6.75;;;3.35;;
40601;SDS011;26310;50.278;19.032;2023-07-20T02:08:10;6.63;;;4.37;;
40601;SDS011;26310;50.278;19.032;2023-07-20T02:13:13;8.37;;;4.07;;
40601;SDS011;26310;50.278;19.032;2023-07-20T02:18:17;9.07;;;4.03;;
40601;SDS011;26310;50.278;19.032;2023-07-20T02:23:20;8.50;;;4.80;;
40601;SDS011;26310;50.278;19.032;2023-07-20T02:28:23;16.23;;;6.90;;
40601;SDS011;26310;50.278;19.032;2023-07-20T02:33:26;10.70;;;6.10;;
40601;SDS011;26310;50.278;19.032;2023-07-20T02:38:29;9.60;;;5.17;;
40601;SDS011;26310;50.278;19.032;2023-07-20T02:43:32;15.83;;;6.40;;
40601;SDS011;26310;50.278;19.032;2023-07-20T02:48:35;17.43;;;9.30;;
40601;SDS011;26310;50.278;19.032;2023-07-20T02:53:38;17.60;;;9.50;;
40601;SDS011;26310;50.278;19.032;2023-07-20T02:58:41;11.60;;;5.17;;
40601;SDS011;26310;50.278;19.032;2023-07-20T03:03:50;5.20;;;3.40;;
40601;SDS011;26310;50.278;19.032;2023-07-20T03:08:53;6.00;;;3.43;;
40601;SDS011;26310;50.278;19.032;2023-07-20T03:13:56;6.77;;;3.50;;
40601;SDS011;26310;50.278;19.032;2023-07-20T03:18:59;7.27;;;3.17;;
40601;SDS011;26310;50.278;19.032;2023-07-20T03:24:03;5.07;;;3.60;;
40601;SDS011;26310;50.278;19.032;2023-07-20T03:29:06;6.83;;;3.80;;
40601;SDS011;26310;50.278;19.032;2023-07-20T03:34:10;5.53;;;3.33;;
40601;SDS011;26310;50.278;19.032;2023-07-20T03:39:16;6.23;;;3.73;;
40601;SDS011;26310;50.278;19.032;2023-07-20T03:44:19;6.03;;;3.33;;
40601;SDS011;26310;50.278;19.032;2023-07-20T03:49:22;5.63;;;3.30;;
40601;SDS011;26310;50.278;19.032;2023-07-20T03:54:25;4.47;;;2.93;;
40601;SDS011;26310;50.278;19.032;2023-07-20T03:59:29;5.17;;;3.37;;
40601;SDS011;26310;50.278;19.032;2023-07-20T04:04:32;4.70;;;3.30;;
40601;SDS011;26310;50.278;19.032;2023-07-20T04:09:35;4.80;;;2.90;;
40601;SDS011;26310;50.278;19.032;2023-07-20T04:14:38;4.03;;;3.00;;
40601;SDS011;26310;50.278;19.032;2023-07-20T04:19:41;4.77;;;2.97;;
40601;SDS011;26310;50.278;19.032;2023-07-20T04:24:45;5.00;;;3.37;;
40601;SDS011;26310;50.278;19.032;2023-07-20T04:29:48;4.93;;;3.07;;
40601;SDS011;26310;50.278;19.032;2023-07-20T04:34:51;4.00;;;2.73;;
40601;SDS011;26310;50.278;19.032;2023-07-20T04:39:54;7.37;;;3.03;;
40601;SDS011;26310;50.278;19.032;2023-07-20T04:44:57;8.23;;;4.03;;
40601;SDS011;26310;50.278;19.032;2023-07-20T04:50:01;6.97;;;3.67;;
40601;SDS011;26310;50.278;19.032;2023-07-20T04:55:04;5.90;;;3.53;;
40601;SDS011;26310;50.278;19.032;2023-07-20T05:00:08;5.93;;;3.33;;
40601;SDS011;26310;50.278;19.032;2023-07-20T05:05:15;5.93;;;2.90;;
40601;SDS011;26310;50.278;19.032;2023-07-20T05:10:18;5.17;;;2.90;;
40601;SDS011;26310;50.278;19.032;2023-07-20T05:15:22;6.50;;;3.27;;
40601;SDS011;26310;50.278;19.032;2023-07-20T05:20:25;7.20;;;3.40;;
40601;SDS011;26310;50.278;19.032;2023-07-20T05:25:28;7.73;;;4.47;;
40601;SDS011;26310;50.278;19.032;2023-07-20T05:30:32;7.93;;;4.57;;
40601;SDS011;26310;50.278;19.032;2023-07-20T05:35:36;7.33;;;3.97;;
40601;SDS011;26310;50.278;19.032;2023-07-20T05:40:40;8.43;;;4.57;;
40601;SDS011;26310;50.278;19.032;2023-07-20T05:45:47;11.80;;;5.03;;
40601;SDS011;26310;50.278;19.032;2023-07-20T05:50:50;8.40;;;4.60;;
40601;SDS011;26310;50.278;19.032;2023-07-20T05:55:54;7.87;;;3.80;;
40601;SDS011;26310;50.278;19.032;2023-07-20T06:00:57;7.57;;;4.63;;
40601;SDS011;26310;50.278;19.032;2023-07-20T06:06:02;6.27;;;3.90;;
40601;SDS011;26310;50.278;19.032;2023-07-20T06:11:08;4.60;;;3.50;;
40601;SDS011;26310;50.278;19.032;2023-07-20T06:16:11;6.43;;;3.60;;
40601;SDS011;26310;50.278;19.032;2023-07-20T06:21:15;5.90;;;3.07;;
40601;SDS011;26310;50.278;19.032;2023-07-20T06:26:18;6.90;;;3.50;;
40601;SDS011;26310;50.278;19.032;2023-07-20T06:31:22;5.97;;;3.20;;
40601;SDS011;26310;50.278;19.032;2023-07-20T06:36:25;6.30;;;3.20;;
40601;SDS011;26310;50.278;19.032;2023-07-20T06:41:28;4.47;;;2.97;;
40601;SDS011;26310;50.278;19.032;2023-07-20T06:46:34;4.83;;;2.60;;
40601;SDS011;26310;50.278;19.032;2023-07-20T06:51:37;6.90;;;2.78;;
40601;SDS011;26310;50.278;19.032;2023-07-20T06:56:40;3.25;;;2.55;;
40601;SDS011;26310;50.278;19.032;2023-07-20T07:01:48;3.13;;;2.40;;
40601;SDS011;26310;50.278;19.032;2023-07-20T07:06:51;6.15;;;2.35;;
40601;SDS011;26310;50.278;19.032;2023-07-20T07:11:54;4.35;;;2.17;;
40601;SDS011;26310;50.278;19.032;2023-07-20T07:16:57;3.08;;;2.30;;
40601;SDS011;26310;50.278;19.032;2023-07-20T07:22:00;3.30;;;2.45;;
40601;SDS011;26310;50.278;19.032;2023-07-20T07:27:05;4.82;;;2.30;;
40601;SDS011;26310;50.278;19.032;2023-07-20T07:32:08;3.88;;;1.83;;
40601;SDS011;26310;50.278;19.032;2023-07-20T07:37:12;5.25;;;2.00;;
40601;SDS011;26310;50.278;19.032;2023-07-20T07:42:15;3.63;;;1.73;;
40601;SDS011;26310;50.278;19.032;2023-07-20T07:47:18;2.88;;;1.80;;
40601;SDS011;26310;50.278;19.032;2023-07-20T07:52:21;3.20;;;1.70;;
40601;SDS011;26310;50.278;19.032;2023-07-20T07:57:24;2.40;;;1.77;;
40601;SDS011;26310;50.278;19.032;2023-07-20T08:02:27;1.90;;;1.45;;
40601;SDS011;26310;50.278;19.032;2023-07-20T08:07:30;2.03;;;1.65;;
40601;SDS011;26310;50.278;19.032;2023-07-20T08:12:33;2.65;;;1.80;;
40601;SDS011;26310;50.278;19.032;2023-07-20T08:17:37;4.13;;;2.10;;
40601;SDS011;26310;50.278;19.032;2023-07-20T08:22:40;4.25;;;3.53;;
40601;SDS011;26310;50.278;19.032;2023-07-20T08:27:43;4.95;;;2.90;;
40601;SDS011;26310;50.278;19.032;2023-07-20T08:32:49;4.35;;;2.88;;
40601;SDS011;26310;50.278;19.032;2023-07-20T08:37:52;4.43;;;3.60;;
40601;SDS011;26310;50.278;19.032;2023-07-20T08:42:59;5.70;;;3.95;;
40601;SDS011;26310;50.278;19.032;2023-07-20T08:48:03;7.75;;;5.25;;
40601;SDS011;26310;50.278;19.032;2023-07-20T08:53:08;7.00;;;4.78;;
40601;SDS011;26310;50.278;19.032;2023-07-20T08:58:11;7.82;;;4.90;;
40601;SDS011;26310;50.278;19.032;2023-07-20T09:03:17;8.95;;;5.90;;
40601;SDS011;26310;50.278;19.032;2023-07-20T09:08:21;6.57;;;5.78;;
40601;SDS011;26310;50.278;19.032;2023-07-20T09:13:27;7.22;;;5.97;;
40601;SDS011;26310;50.278;19.032;2023-07-20T09:18:31;6.80;;;5.72;;
40601;SDS011;26310;50.278;19.032;2023-07-20T09:23:37;9.23;;;6.85;;
40601;SDS011;26310;50.278;19.032;2023-07-20T09:28:44;9.05;;;6.40;;
40601;SDS011;26310;50.278;19.032;2023-07-20T09:33:58;6.15;;;5.40;;
40601;SDS011;26310;50.278;19.032;2023-07-20T09:39:03;9.68;;;5.32;;
40601;SDS011;26310;50.278;19.032;2023-07-20T09:44:06;7.72;;;5.78;;
40601;SDS011;26310;50.278;19.032;2023-07-20T09:49:15;7.47;;;5.72;;
40601;SDS011;26310;50.278;19.032;2023-07-20T09:54:22;11.10;;;6.50;;
40601;SDS011;26310;50.278;19.032;2023-07-20T09:59:26;7.30;;;6.10;;
40601;SDS011;26310;50.278;19.032;2023-07-20T10:04:29;12.13;;;6.80;;
40601;SDS011;26310;50.278;19.032;2023-07-20T10:09:33;11.15;;;7.88;;
40601;SDS011;26310;50.278;19.032;2023-07-20T10:14:44;8.40;;;7.15;;
40601;SDS011;26310;50.278;19.032;2023-07-20T10:19:55;9.25;;;7.20;;
40601;SDS011;26310;50.278;19.032;2023-07-20T10:24:59;7.45;;;5.65;;
40601;SDS011;26310;50.278;19.032;2023-07-20T10:30:03;10.52;;;6.10;;
40601;SDS011;26310;50.278;19.032;2023-07-20T10:35:14;5.53;;;4.93;;
40601;SDS011;26310;50.278;19.032;2023-07-20T10:45:41;7.50;;;4.78;;
40601;SDS011;26310;50.278;19.032;2023-07-20T10:56:13;4.25;;;3.10;;
40601;SDS011;26310;50.278;19.032;2023-07-20T11:01:17;4.68;;;3.00;;
40601;SDS011;26310;50.278;19.032;2023-07-20T11:11:31;4.35;;;3.00;;
40601;SDS011;26310;50.278;19.032;2023-07-20T11:16:46;2.92;;;2.63;;
40601;SDS011;26310;50.278;19.032;2023-07-20T11:21:50;4.43;;;2.42;;
40601;SDS011;26310;50.278;19.032;2023-07-20T11:27:03;4.22;;;2.72;;
40601;SDS011;26310;50.278;19.032;2023-07-20T11:32:07;2.90;;;2.35;;
40601;SDS011;26310;50.278;19.032;2023-07-20T11:37:10;5.25;;;2.60;;
40601;SDS011;26310;50.278;19.032;2023-07-20T11:42:13;4.82;;;2.50;;
40601;SDS011;26310;50.278;19.032;2023-07-20T11:47:19;4.20;;;2.30;;
40601;SDS011;26310;50.278;19.032;2023-07-20T11:52:23;4.10;;;2.33;;
40601;SDS011;26310;50.278;19.032;2023-07-20T11:57:26;3.75;;;2.22;;
40601;SDS011;26310;50.278;19.032;2023-07-20T12:02:29;2.65;;;2.15;;
40601;SDS011;26310;50.278;19.032;2023-07-20T12:07:35;3.17;;;2.13;;
40601;SDS011;26310;50.278;19.032;2023-07-20T12:12:43;3.92;;;2.08;;
40601;SDS011;26310;50.278;19.032;2023-07-20T12:17:49;4.18;;;2.45;;
40601;SDS011;26310;50.278;19.032;2023-07-20T12:22:55;4.70;;;2.40;;
40601;SDS011;26310;50.278;19.032;2023-07-20T12:28:19;2.65;;;2.17;;
40601;SDS011;26310;50.278;19.032;2023-07-20T12:33:22;7.03;;;2.30;;
40601;SDS011;26310;50.278;19.032;2023-07-20T12:38:25;2.10;;;1.83;;
40601;SDS011;26310;50.278;19.032;2023-07-20T12:43:29;2.67;;;2.15;;
40601;SDS011;26310;50.278;19.032;2023-07-20T12:48:34;3.50;;;2.30;;
40601;SDS011;26310;50.278;19.032;2023-07-20T12:53:38;4.20;;;2.00;;
40601;SDS011;26310;50.278;19.032;2023-07-20T12:58:41;3.95;;;2.15;;
40601;SDS011;26310;50.278;19.032;2023-07-20T13:03:44;3.78;;;2.25;;
40601;SDS011;26310;50.278;19.032;2023-07-20T13:08:50;2.90;;;2.05;;
40601;SDS011;26310;50.278;19.032;2023-07-20T13:13:57;2.78;;;1.98;;
40601;SDS011;26310;50.278;19.032;2023-07-20T13:19:00;3.50;;;2.17;;
40601;SDS011;26310;50.278;19.032;2023-07-20T13:24:03;4.20;;;2.13;;
40601;SDS011;26310;50.278;19.032;2023-07-20T13:29:07;5.05;;;2.20;;
40601;SDS011;26310;50.278;19.032;2023-07-20T13:34:10;3.28;;;1.92;;
40601;SDS011;26310;50.278;19.032;2023-07-20T13:39:15;2.30;;;2.00;;
40601;SDS011;26310;50.278;19.032;2023-07-20T13:44:18;2.67;;;2.10;;
40601;SDS011;26310;50.278;19.032;2023-07-20T13:49:23;7.57;;;2.50;;
40601;SDS011;26310;50.278;19.032;2023-07-20T13:54:26;2.63;;;2.08;;
40601;SDS011;26310;50.278;19.032;2023-07-20T13:59:30;3.08;;;2.10;;
40601;SDS011;26310;50.278;19.032;2023-07-20T14:04:33;2.97;;;2.03;;
40601;SDS011;26310;50.278;19.032;2023-07-20T14:09:37;3.50;;;1.95;;
40601;SDS011;26310;50.278;19.032;2023-07-20T14:15:00;5.43;;;2.38;;
40601;SDS011;26310;50.278;19.032;2023-07-20T14:20:04;5.93;;;2.55;;
40601;SDS011;26310;50.278;19.032;2023-07-20T14:25:23;2.67;;;2.10;;
40601;SDS011;26310;50.278;19.032;2023-07-20T14:30:26;2.20;;;1.92;;
40601;SDS011;26310;50.278;19.032;2023-07-20T14:35:29;4.95;;;1.90;;
40601;SDS011;26310;50.278;19.032;2023-07-20T14:40:32;3.20;;;1.70;;
40601;SDS011;26310;50.278;19.032;2023-07-20T14:45:41;3.58;;;1.73;;
40601;SDS011;26310;50.278;19.032;2023-07-20T14:50:44;5.05;;;1.83;;
40601;SDS011;26310;50.278;19.032;2023-07-20T14:55:48;3.50;;;1.60;;
40601;SDS011;26310;50.278;19.032;2023-07-20T15:00:52;3.00;;;2.05;;
40601;SDS011;26310;50.278;19.032;2023-07-20T15:05:54;4.40;;;1.58;;
40601;SDS011;26310;50.278;19.032;2023-07-20T15:10:57;8.98;;;2.28;;
40601;SDS011;26310;50.278;19.032;2023-07-20T15:16:00;6.10;;;2.03;;
40601;SDS011;26310;50.278;19.032;2023-07-20T15:21:04;3.60;;;1.95;;
40601;SDS011;26310;50.278;19.032;2023-07-20T15:26:08;3.97;;;1.90;;
40601;SDS011;26310;50.278;19.032;2023-07-20T15:31:12;3.50;;;1.88;;
40601;SDS011;26310;50.278;19.032;2023-07-20T15:36:15;4.05;;;2.10;;
40601;SDS011;26310;50.278;19.032;2023-07-20T15:41:18;4.68;;;2.05;;
40601;SDS011;26310;50.278;19.032;2023-07-20T15:51:45;5.70;;;2.00;;
40601;SDS011;26310;50.278;19.032;2023-07-20T15:56:48;3.03;;;1.95;;
40601;SDS011;26310;50.278;19.032;2023-07-20T16:01:51;5.82;;;1.80;;
40601;SDS011;26310;50.278;19.032;2023-07-20T16:06:55;2.78;;;2.22;;
40601;SDS011;26310;50.278;19.032;2023-07-20T16:11:58;3.33;;;2.25;;
40601;SDS011;26310;50.278;19.032;2023-07-20T16:17:01;3.42;;;2.30;;
40601;SDS011;26310;50.278;19.032;2023-07-20T16:22:05;3.05;;;2.00;;
40601;SDS011;26310;50.278;19.032;2023-07-20T16:27:08;2.75;;;2.08;;
40601;SDS011;26310;50.278;19.032;2023-07-20T16:32:11;3.83;;;2.30;;
40601;SDS011;26310;50.278;19.032;2023-07-20T16:37:14;4.55;;;2.08;;
40601;SDS011;26310;50.278;19.032;2023-07-20T16:42:20;2.72;;;2.00;;
40601;SDS011;26310;50.278;19.032;2023-07-20T16:47:43;2.53;;;1.95;;
40601;SDS011;26310;50.278;19.032;2023-07-20T16:52:46;3.97;;;2.00;;
40601;SDS011;26310;50.278;19.032;2023-07-20T16:57:50;2.50;;;1.67;;
40601;SDS011;26310;50.278;19.032;2023-07-20T17:02:53;3.42;;;1.73;;
40601;SDS011;26310;50.278;19.032;2023-07-20T17:07:57;3.13;;;1.70;;
40601;SDS011;26310;50.278;19.032;2023-07-20T17:13:01;2.72;;;1.92;;
40601;SDS011;26310;50.278;19.032;2023-07-20T17:18:05;2.67;;;1.75;;
40601;SDS011;26310;50.278;19.032;2023-07-20T17:23:08;3.08;;;2.20;;
40601;SDS011;26310;50.278;19.032;2023-07-20T17:28:11;2.58;;;1.98;;
40601;SDS011;26310;50.278;19.032;2023-07-20T17:33:21;3.25;;;1.85;;
40601;SDS011;26310;50.278;19.032;2023-07-20T17:38:24;2.25;;;1.98;;
40601;SDS011;26310;50.278;19.032;2023-07-20T17:43:31;3.28;;;1.92;;
40601;SDS011;26310;50.278;19.032;2023-07-20T17:48:33;3.58;;;1.90;;
40601;SDS011;26310;50.278;19.032;2023-07-20T17:53:37;3.95;;;2.13;;
40601;SDS011;26310;50.278;19.032;2023-07-20T17:58:39;4.88;;;2.03;;
40601;SDS011;26310;50.278;19.032;2023-07-20T18:03:42;6.13;;;1.80;;
40601;SDS011;26310;50.278;19.032;2023-07-20T18:08:45;2.95;;;2.10;;
40601;SDS011;26310;50.278;19.032;2023-07-20T18:13:48;3.50;;;2.30;;
40601;SDS011;26310;50.278;19.032;2023-07-20T18:18:51;5.00;;;2.15;;
40601;SDS011;26310;50.278;19.032;2023-07-20T18:23:55;3.97;;;2.60;;
40601;SDS011;26310;50.278;19.032;2023-07-20T18:28:59;6.32;;;2.50;;
40601;SDS011;26310;50.278;19.032;2023-07-20T18:34:03;3.95;;;2.60;;
40601;SDS011;26310;50.278;19.032;2023-07-20T18:39:10;6.78;;;3.42;;
40601;SDS011;26310;50.278;19.032;2023-07-20T18:44:15;7.28;;;4.82;;
40601;SDS011;26310;50.278;19.032;2023-07-20T18:49:18;7.28;;;4.70;;
40601;SDS011;26310;50.278;19.032;2023-07-20T18:54:21;7.35;;;4.15;;
40601;SDS011;26310;50.278;19.032;2023-07-20T18:59:25;6.97;;;3.58;;
40601;SDS011;26310;50.278;19.032;2023-07-20T19:04:28;8.18;;;3.45;;
40601;SDS011;26310;50.278;19.032;2023-07-20T19:09:31;5.78;;;3.40;;
40601;SDS011;26310;50.278;19.032;2023-07-20T19:14:34;6.70;;;3.17;;
40601;SDS011;26310;50.278;19.032;2023-07-20T19:19:37;4.68;;;3.38;;
40601;SDS011;26310;50.278;19.032;2023-07-20T19:24:40;6.07;;;3.42;;
40601;SDS011;26310;50.278;19.032;2023-07-20T19:29:44;7.00;;;3.33;;
40601;SDS011;26310;50.278;19.032;2023-07-20T19:34:47;5.18;;;3.20;;
40601;SDS011;26310;50.278;19.032;2023-07-20T19:39:50;3.78;;;3.00;;
40601;SDS011;26310;50.278;19.032;2023-07-20T19:44:57;4.85;;;3.00;;
40601;SDS011;26310;50.278;19.032;2023-07-20T19:50:06;4.53;;;3.25;;
40601;SDS011;26310;50.278;19.032;2023-07-20T19:55:09;4.97;;;2.70;;
40601;SDS011;26310;50.278;19.032;2023-07-20T20:00:13;5.47;;;3.85;;
40601;SDS011;26310;50.278;19.032;2023-07-20T20:05:16;5.55;;;2.80;;
40601;SDS011;26310;50.278;19.032;2023-07-20T20:10:22;7.90;;;2.85;;
40601;SDS011;26310;50.278;19.032;2023-07-20T20:15:27;6.15;;;3.28;;
40601;SDS011;26310;50.278;19.032;2023-07-20T20:20:32;6.43;;;3.13;;
40601;SDS011;26310;50.278;19.032;2023-07-20T20:25:35;5.32;;;2.85;;
40601;SDS011;26310;50.278;19.032;2023-07-20T20:30:41;4.38;;;3.38;;
40601;SDS011;26310;50.278;19.032;2023-07-20T20:36:03;6.65;;;3.90;;
40601;SDS011;26310;50.278;19.032;2023-07-20T20:41:12;5.05;;;3.33;;
40601;SDS011;26310;50.278;19.032;2023-07-20T20:46:15;4.68;;;3.40;;
40601;SDS011;26310;50.278;19.032;2023-07-20T20:51:25;4.75;;;3.50;;
40601;SDS011;26310;50.278;19.032;2023-07-20T20:56:28;5.57;;;3.50;;
40601;SDS011;26310;50.278;19.032;2023-07-20T21:01:33;6.80;;;3.67;;
40601;SDS011;26310;50.278;19.032;2023-07-20T21:06:36;6.22;;;4.07;;
40601;SDS011;26310;50.278;19.032;2023-07-20T21:11:39;8.07;;;4.00;;
40601;SDS011;26310;50.278;19.032;2023-07-20T21:16:42;6.47;;;4.45;;
40601;SDS011;26310;50.278;19.032;2023-07-20T21:21:46;6.60;;;4.72;;
40601;SDS011;26310;50.278;19.032;2023-07-20T21:26:48;6.97;;;4.65;;
40601;SDS011;26310;50.278;19.032;2023-07-20T21:31:52;6.50;;;4.72;;
40601;SDS011;26310;50.278;19.032;2023-07-20T21:36:54;9.05;;;4.75;;
40601;SDS011;26310;50.278;19.032;2023-07-20T21:41:57;7.75;;;5.38;;
40601;SDS011;26310;50.278;19.032;2023-07-20T21:47:00;5.63;;;4.38;;
40601;SDS011;26310;50.278;19.032;2023-07-20T21:52:03;7.47;;;4.47;;
40601;SDS011;26310;50.278;19.032;2023-07-20T21:57:07;6.38;;;4.10;;
40601;SDS011;26310;50.278;19.032;2023-07-20T22:02:10;4.93;;;3.92;;
40601;SDS011;26310;50.278;19.032;2023-07-20T22:07:13;7.28;;;4.55;;
40601;SDS011;26310;50.278;19.032;2023-07-20T22:12:16;8.10;;;4.88;;
40601;SDS011;26310;50.278;19.032;2023-07-20T22:17:19;7.65;;;4.93;;
40601;SDS011;26310;50.278;19.032;2023-07-20T22:22:22;7.30;;;4.80;;
40601;SDS011;26310;50.278;19.032;2023-07-20T22:27:25;7.70;;;4.78;;
40601;SDS011;26310;50.278;19.032;2023-07-20T22:32:28;6.45;;;4.57;;
40601;SDS011;26310;50.278;19.032;2023-07-20T22:37:31;5.15;;;4.40;;
40601;SDS011;26310;50.278;19.032;2023-07-20T22:48:18;7.82;;;4.68;;
40601;SDS011;26310;50.278;19.032;2023-07-20T22:53:25;7.35;;;4.60;;
40601;SDS011;26310;50.278;19.032;2023-07-20T22:58:31;7.32;;;4.85;;
40601;SDS011;26310;50.278;19.032;2023-07-20T23:03:35;5.87;;;4.70;;
40601;SDS011;26310;50.278;19.032;2023-07-20T23:08:39;5.13;;;4.20;;
40601;SDS011;26310;50.278;19.032;2023-07-20T23:13:42;6.23;;;4.53;;
40601;SDS011;26310;50.278;19.032;2023-07-20T23:18:45;8.25;;;4.30;;
40601;SDS011;26310;50.278;19.032;2023-07-20T23:23:49;5.60;;;4.65;;
40601;SDS011;26310;50.278;19.032;2023-07-20T23:28:53;5.68;;;4.00;;
40601;SDS011;26310;50.278;19.032;2023-07-20T23:33:56;5.72;;;3.92;;
40601;SDS011;26310;50.278;19.032;2023-07-20T23:39:00;5.90;;;3.97;;
40601;SDS011;26310;50.278;19.032;2023-07-20T23:44:03;6.47;;;3.70;;
40601;SDS011;26310;50.278;19.032;2023-07-20T23:49:06;6.38;;;3.97;;
40601;SDS011;26310;50.278;19.032;2023-07-20T23:54:10;4.53;;;3.77;;
40601;SDS011;26310;50.278;19.032;2023-07-20T23:59:16;5.77;;;4.13;;
